Time;durP1;ratioP1;P1;durP2;ratioP2;P2;SDS_P1;SDS_P2;PMS_P1;PMS_P2;Temp;Humidity;BMP_temperature;BMP_pressure;BME280_temperature;BME280_humidity;BME280_pressure;Samples;Min_cycle;Max_cycle;Signal;HPM_P1;HPM_P2
2022/04/27 00:00:18;;;;;;;8.10;7.28;;;6.00;99.90;;;;;;5031252;28;20033;-72
2022/04/27 00:02:44;;;;;;;10.38;7.55;;;5.90;99.90;;;;;;5031713;28;20029;-72
2022/04/27 00:05:10;;;;;;;10.82;6.93;;;5.90;99.90;;;;;;5031533;28;20396;-72
2022/04/27 00:07:35;;;;;;;14.18;8.10;;;5.80;99.90;;;;;;5031031;28;20116;-72
2022/04/27 00:10:02;;;;;;;8.30;7.45;;;5.70;99.90;;;;;;5031517;28;20079;-72
2022/04/27 00:12:27;;;;;;;11.30;8.48;;;5.70;99.90;;;;;;5031781;28;20196;-72
2022/04/27 00:14:53;;;;;;;11.35;8.43;;;5.70;99.90;;;;;;5030684;28;20100;-72
2022/04/27 00:17:18;;;;;;;9.55;7.43;;;5.70;99.90;;;;;;5031730;28;20108;-71
2022/04/27 00:19:44;;;;;;;11.25;8.30;;;5.60;99.90;;;;;;5031703;28;20032;-71
2022/04/27 00:22:11;;;;;;;9.40;8.50;;;5.60;99.90;;;;;;5030466;28;20030;-70
2022/04/27 00:24:39;;;;;;;17.05;8.70;;;5.60;99.90;;;;;;5031602;28;20433;-71
2022/04/27 00:27:05;;;;;;;13.20;7.50;;;5.70;99.90;;;;;;5031146;28;20032;-71
2022/04/27 00:29:30;;;;;;;9.30;8.40;;;5.60;99.90;;;;;;5033948;28;20038;-71
2022/04/27 00:31:59;;;;;;;8.65;7.82;;;5.60;99.90;;;;;;5034906;28;20483;-71
2022/04/27 00:34:25;;;;;;;14.32;9.20;;;5.60;99.90;;;;;;5034861;28;20030;-71
2022/04/27 00:36:50;;;;;;;14.68;8.80;;;5.60;99.90;;;;;;5033837;28;20025;-71
2022/04/27 00:39:17;;;;;;;13.27;8.90;;;5.60;99.90;;;;;;5034848;28;20486;-71
2022/04/27 00:41:59;;;;;;;14.07;8.55;;;5.60;99.90;;;;;;5034782;28;20029;-71
2022/04/27 00:44:29;;;;;;;12.68;8.77;;;5.60;99.90;;;;;;5034951;28;20037;-71
2022/04/27 00:46:55;;;;;;;16.27;9.38;;;5.60;99.90;;;;;;5034407;28;20101;-71
2022/04/27 00:49:20;;;;;;;13.73;9.95;;;5.60;99.90;;;;;;5033988;28;20116;-71
2022/04/27 00:51:47;;;;;;;15.20;9.45;;;5.60;99.90;;;;;;5034739;28;20561;-72
2022/04/27 00:54:13;;;;;;;11.93;9.10;;;5.60;99.90;;;;;;5034544;28;20030;-72
2022/04/27 00:56:39;;;;;;;15.07;10.88;;;5.70;99.90;;;;;;5033858;28;20057;-71
2022/04/27 00:59:05;;;;;;;22.00;10.85;;;5.80;99.90;;;;;;5034144;28;20030;-71
2022/04/27 01:01:32;;;;;;;23.95;11.50;;;5.90;99.90;;;;;;5034737;28;20052;-71
2022/04/27 01:03:58;;;;;;;14.35;10.00;;;6.00;99.90;;;;;;5033270;28;20091;-72
2022/04/27 01:06:24;;;;;;;16.98;10.57;;;6.10;99.90;;;;;;5034422;28;20029;-71
2022/04/27 01:08:50;;;;;;;22.13;12.20;;;6.00;99.90;;;;;;5034117;28;20497;-71
2022/04/27 01:11:16;;;;;;;16.75;11.75;;;6.00;99.90;;;;;;5033705;28;20040;-71
2022/04/27 01:13:41;;;;;;;21.02;11.75;;;6.20;99.90;;;;;;5034071;28;20030;-72
2022/04/27 01:16:10;;;;;;;20.92;11.27;;;6.10;99.90;;;;;;5033872;28;20497;-71
2022/04/27 01:18:36;;;;;;;17.60;10.43;;;6.00;99.90;;;;;;5033210;28;20025;-71
2022/04/27 01:21:03;;;;;;;12.98;10.27;;;5.90;99.90;;;;;;5033998;28;20056;-71
2022/04/27 01:23:28;;;;;;;15.93;11.45;;;5.90;99.90;;;;;;5034133;28;20037;-71
2022/04/27 01:25:56;;;;;;;18.58;11.18;;;5.80;99.90;;;;;;5032929;28;20131;-71
2022/04/27 01:28:27;;;;;;;15.75;12.00;;;5.80;99.90;;;;;;5034226;28;20033;-71
2022/04/27 01:30:57;;;;;;;15.52;9.98;;;5.70;99.90;;;;;;5025705;28;20037;-71
2022/04/27 01:33:24;;;;;;;18.55;11.02;;;5.70;99.90;;;;;;5013517;28;20038;-71
2022/04/27 01:35:49;;;;;;;13.55;9.80;;;5.60;99.90;;;;;;5013862;28;20394;-72
2022/04/27 01:38:16;;;;;;;15.30;9.55;;;5.60;99.90;;;;;;5013225;28;20042;-72
2022/04/27 01:40:42;;;;;;;14.93;9.65;;;5.50;99.90;;;;;;5013869;28;20029;-72
2022/04/27 01:43:07;;;;;;;15.35;10.40;;;5.50;99.90;;;;;;5013581;28;20037;-72
2022/04/27 01:45:33;;;;;;;17.83;10.95;;;5.50;99.90;;;;;;5013112;28;20018;-72
2022/04/27 01:47:59;;;;;;;16.98;12.23;;;5.50;99.90;;;;;;5013771;28;20022;-72
2022/04/27 01:50:24;;;;;;;16.77;9.88;;;5.50;99.90;;;;;;5013749;28;20026;-72
2022/04/27 01:55:35;;;;;;;17.67;10.27;;;5.50;99.90;;;;;;5013512;28;20065;-72
2022/04/27 01:58:00;;;;;;;17.67;10.57;;;5.40;99.90;;;;;;5013412;28;20394;-72
2022/04/27 02:00:26;;;;;;;14.65;10.43;;;5.40;99.90;;;;;;5013075;28;20053;-72
2022/04/27 02:02:51;;;;;;;13.05;9.57;;;5.40;99.90;;;;;;5013502;28;20029;-72
2022/04/27 02:05:17;;;;;;;22.38;12.07;;;5.40;99.90;;;;;;5013621;28;20118;-70
2022/04/27 02:07:45;;;;;;;18.02;10.90;;;5.30;99.90;;;;;;5012895;28;20181;-71
2022/04/27 02:10:11;;;;;;;18.40;10.57;;;5.30;99.90;;;;;;5013262;28;20533;-71
2022/04/27 02:12:37;;;;;;;19.88;10.73;;;5.40;99.90;;;;;;5013633;28;20133;-71
2022/04/27 02:15:02;;;;;;;16.65;10.85;;;5.30;99.90;;;;;;5012715;28;20053;-71
2022/04/27 02:17:28;;;;;;;21.17;10.60;;;5.30;99.90;;;;;;5013455;28;20038;-72
2022/04/27 02:19:54;;;;;;;17.70;10.77;;;5.30;99.90;;;;;;5013145;28;20034;-72
2022/04/27 02:22:19;;;;;;;17.40;9.85;;;5.30;99.90;;;;;;5012559;28;20025;-70
2022/04/27 02:24:45;;;;;;;14.95;10.80;;;5.20;99.90;;;;;;5013294;28;20061;-70
2022/04/27 02:27:10;;;;;;;20.27;10.43;;;5.20;99.90;;;;;;5012658;28;20030;-71
2022/04/27 02:29:36;;;;;;;15.85;10.63;;;5.20;99.90;;;;;;5012529;28;20033;-71
2022/04/27 02:32:02;;;;;;;14.52;10.20;;;5.20;99.90;;;;;;5012720;28;20030;-71
2022/04/27 02:34:27;;;;;;;15.48;10.52;;;5.20;99.90;;;;;;5012359;28;20049;-71
2022/04/27 02:36:53;;;;;;;14.25;9.65;;;5.20;99.90;;;;;;5012774;28;20018;-71
2022/04/27 02:39:19;;;;;;;11.10;8.63;;;5.20;99.90;;;;;;5012953;28;20026;-71
2022/04/27 02:41:44;;;;;;;15.80;10.30;;;5.10;99.90;;;;;;5012112;28;20021;-71
2022/04/27 02:44:10;;;;;;;11.95;9.15;;;5.10;99.90;;;;;;5012743;28;20112;-71
2022/04/27 02:46:37;;;;;;;14.32;9.23;;;5.10;99.90;;;;;;5012967;28;20026;-70
2022/04/27 02:51:51;;;;;;;16.08;9.77;;;5.00;99.90;;;;;;5012353;28;20084;-71
2022/04/27 02:54:18;;;;;;;12.93;10.00;;;5.00;99.90;;;;;;5012692;28;20145;-72
2022/04/27 02:56:44;;;;;;;14.15;9.90;;;4.90;99.90;;;;;;5011892;28;20066;-71
2022/04/27 02:59:10;;;;;;;11.88;9.73;;;4.90;99.90;;;;;;5012357;28;20115;-72
2022/04/27 03:01:36;;;;;;;14.77;10.23;;;4.80;99.90;;;;;;5012613;28;20359;-72
2022/04/27 03:04:01;;;;;;;13.23;9.38;;;4.80;99.90;;;;;;5011657;28;20029;-71
2022/04/27 03:06:27;;;;;;;14.63;9.85;;;4.70;99.90;;;;;;5012578;28;20449;-71
2022/04/27 03:08:52;;;;;;;16.38;10.95;;;4.70;99.90;;;;;;5012362;28;20033;-71
2022/04/27 03:11:18;;;;;;;16.73;11.52;;;4.70;99.90;;;;;;5011748;28;20030;-71
2022/04/27 03:13:43;;;;;;;18.77;11.27;;;4.60;99.90;;;;;;5012548;28;20088;-71
2022/04/27 03:16:09;;;;;;;14.90;11.32;;;4.60;99.90;;;;;;5014462;28;20018;-71
2022/04/27 03:18:35;;;;;;;19.33;11.25;;;4.60;99.90;;;;;;5012550;28;20022;-71
2022/04/27 03:21:01;;;;;;;18.23;10.38;;;4.70;99.90;;;;;;5012577;28;20026;-70
2022/04/27 03:23:28;;;;;;;18.48;10.95;;;4.70;99.90;;;;;;5012241;28;20083;-71
2022/04/27 03:25:53;;;;;;;23.00;11.30;;;4.70;99.90;;;;;;5011712;28;20034;-71
2022/04/27 03:28:19;;;;;;;17.90;11.18;;;4.80;99.90;;;;;;5012421;28;20028;-71
2022/04/27 03:30:45;;;;;;;16.33;11.30;;;4.70;99.90;;;;;;5011675;28;20029;-71
2022/04/27 03:33:10;;;;;;;16.27;10.80;;;4.70;99.90;;;;;;5012721;28;20112;-71
2022/04/27 03:35:36;;;;;;;15.02;10.45;;;4.70;99.90;;;;;;5020069;28;20064;-72
2022/04/27 03:38:03;;;;;;;18.05;11.55;;;4.70;99.90;;;;;;5011386;28;20045;-71
2022/04/27 03:40:29;;;;;;;20.58;11.88;;;4.70;99.90;;;;;;5012402;28;20034;-71
2022/04/27 03:42:54;;;;;;;17.13;10.55;;;4.70;99.90;;;;;;5012178;28;20088;-70
2022/04/27 03:45:20;;;;;;;14.38;9.23;;;4.60;99.90;;;;;;5011336;28;20091;-70
2022/04/27 03:47:47;;;;;;;16.80;11.35;;;4.70;99.90;;;;;;5012273;28;20032;-71
2022/04/27 03:50:13;;;;;;;21.67;12.25;;;4.60;99.90;;;;;;5012169;28;20142;-71
2022/04/27 03:52:39;;;;;;;16.88;10.93;;;4.60;99.90;;;;;;5011454;28;20588;-71
2022/04/27 03:55:04;;;;;;;14.85;10.55;;;4.60;99.90;;;;;;5011519;28;20048;-71
2022/04/27 03:57:30;;;;;;;19.10;11.18;;;4.50;99.90;;;;;;5012185;28;20030;-71
2022/04/27 03:59:56;;;;;;;20.30;10.80;;;4.40;99.90;;;;;;5011038;28;20454;-72
2022/04/27 04:02:21;;;;;;;16.35;10.93;;;4.40;99.90;;;;;;5013401;28;20045;-71
2022/04/27 04:04:48;;;;;;;19.23;11.15;;;4.40;99.90;;;;;;5015652;28;20014;-71
2022/04/27 04:07:13;;;;;;;17.70;11.45;;;4.40;99.90;;;;;;5014982;28;20049;-71
2022/04/27 04:09:39;;;;;;;20.45;11.65;;;4.40;99.90;;;;;;5015695;28;20470;-71
2022/04/27 04:12:06;;;;;;;13.40;10.27;;;4.30;99.90;;;;;;5015386;28;20096;-71
2022/04/27 04:14:32;;;;;;;15.07;9.95;;;4.30;99.90;;;;;;5014740;28;20034;-72
2022/04/27 04:16:57;;;;;;;15.75;11.43;;;4.30;99.90;;;;;;5015091;28;20475;-71
2022/04/27 04:19:23;;;;;;;23.40;10.63;;;4.30;99.90;;;;;;5015267;28;20038;-71
2022/04/27 04:21:48;;;;;;;21.02;10.98;;;4.30;99.90;;;;;;5014278;28;20025;-71
2022/04/27 04:24:14;;;;;;;18.63;11.10;;;4.30;99.90;;;;;;5015654;28;20033;-71
2022/04/27 04:29:24;;;;;;;17.63;10.10;;;4.20;99.90;;;;;;5015625;28;20041;-72
2022/04/27 04:31:49;;;;;;;13.00;9.35;;;4.30;99.90;;;;;;5015062;28;20022;-72
2022/04/27 04:34:15;;;;;;;9.00;7.50;;;4.30;99.90;;;;;;5014406;28;20030;-71
2022/04/27 04:36:40;;;;;;;11.32;8.13;;;4.20;99.90;;;;;;5015296;28;20022;-72
2022/04/27 04:39:06;;;;;;;9.90;7.03;;;4.30;99.90;;;;;;5014871;28;20021;-71
2022/04/27 04:41:31;;;;;;;7.90;6.80;;;4.30;99.90;;;;;;5014429;28;20112;-71
2022/04/27 04:43:57;;;;;;;11.23;7.68;;;4.30;99.90;;;;;;5014688;28;20061;-71
2022/04/27 04:46:22;;;;;;;11.35;7.47;;;4.30;99.90;;;;;;5014929;28;20033;-71
2022/04/27 04:48:48;;;;;;;11.50;8.50;;;4.30;99.90;;;;;;5014008;28;20030;-71
2022/04/27 04:51:13;;;;;;;13.68;9.48;;;4.30;99.90;;;;;;5014906;28;20547;-71
2022/04/27 04:53:39;;;;;;;15.77;10.32;;;4.30;99.90;;;;;;5014831;28;20044;-71
2022/04/27 04:56:05;;;;;;;17.02;9.68;;;4.30;99.90;;;;;;5013852;28;20168;-71
2022/04/27 04:58:30;;;;;;;13.15;9.32;;;4.30;99.90;;;;;;5014765;28;20072;-71
2022/04/27 05:00:56;;;;;;;11.30;8.10;;;4.30;99.90;;;;;;5014397;28;20026;-71
2022/04/27 05:03:21;;;;;;;17.48;9.52;;;4.30;99.90;;;;;;5014220;28;20030;-71
2022/04/27 05:05:47;;;;;;;16.88;9.70;;;4.40;99.90;;;;;;5015831;28;20018;-72
2022/04/27 05:08:13;;;;;;;17.70;10.05;;;4.50;99.90;;;;;;5017427;28;20041;-71
2022/04/27 05:10:38;;;;;;;14.35;9.98;;;4.60;99.90;;;;;;5014026;28;20022;-71
2022/04/27 05:13:04;;;;;;;15.70;11.10;;;4.60;99.90;;;;;;5013943;28;20120;-72
2022/04/27 05:15:31;;;;;;;11.63;9.23;;;4.70;99.90;;;;;;5013949;28;20466;-71
2022/04/27 05:17:56;;;;;;;12.60;9.05;;;4.80;99.90;;;;;;5013286;28;20026;-71
2022/04/27 05:20:22;;;;;;;15.25;8.25;;;4.80;99.90;;;;;;5014507;28;20049;-71
2022/04/27 05:22:48;;;;;;;13.77;8.23;;;4.90;99.90;;;;;;5014151;28;20042;-72
2022/04/27 05:25:14;;;;;;;13.57;8.90;;;5.00;99.90;;;;;;5013417;28;20026;-72
2022/04/27 05:27:39;;;;;;;12.13;8.55;;;5.00;99.90;;;;;;5014182;28;20030;-71
2022/04/27 05:32:51;;;;;;;14.23;8.85;;;5.20;99.90;;;;;;5013983;28;20052;-71
2022/04/27 05:35:17;;;;;;;14.00;8.50;;;5.30;99.90;;;;;;5014275;28;20025;-71
2022/04/27 05:37:43;;;;;;;13.77;9.82;;;5.30;99.90;;;;;;5013352;28;20482;-72
2022/04/27 05:40:10;;;;;;;18.30;9.82;;;5.40;99.90;;;;;;5013845;28;20021;-71
2022/04/27 05:42:36;;;;;;;7.80;6.68;;;5.50;99.90;;;;;;5014679;28;20049;-72
2022/04/27 05:45:03;;;;;;;8.73;6.13;;;5.60;99.90;;;;;;5012943;28;20077;-72
2022/04/27 05:47:29;;;;;;;7.55;6.18;;;5.60;99.90;;;;;;5014021;28;20025;-72
2022/04/27 05:49:55;;;;;;;10.93;7.47;;;5.50;99.90;;;;;;5013654;28;20029;-72
2022/04/27 05:52:21;;;;;;;20.52;7.63;;;5.50;99.90;;;;;;5013109;28;20111;-72
2022/04/27 05:54:47;;;;;;;9.75;6.93;;;5.60;99.90;;;;;;5013489;28;20029;-72
2022/04/27 05:57:13;;;;;;;10.45;6.85;;;5.60;99.90;;;;;;5013612;28;20076;-72
2022/04/27 05:59:38;;;;;;;8.38;6.75;;;5.60;99.90;;;;;;5012835;28;20030;-71
2022/04/27 06:02:04;;;;;;;8.88;6.40;;;5.60;99.90;;;;;;5013453;28;20018;-72
2022/04/27 06:04:30;;;;;;;9.63;7.45;;;5.60;99.90;;;;;;5013538;28;20034;-71
2022/04/27 06:06:55;;;;;;;11.18;7.82;;;5.60;99.90;;;;;;5012531;28;20061;-72
2022/04/27 06:09:21;;;;;;;12.32;8.52;;;5.60;99.90;;;;;;5013521;28;20033;-71
2022/04/27 06:11:47;;;;;;;11.25;8.48;;;5.70;99.90;;;;;;5013399;28;20018;-72
2022/04/27 06:14:13;;;;;;;17.65;10.63;;;5.80;99.90;;;;;;5012533;28;20091;-72
2022/04/27 06:16:38;;;;;;;15.85;10.35;;;5.90;99.90;;;;;;5013525;28;20109;-72
2022/04/27 06:19:04;;;;;;;17.83;10.63;;;6.00;99.90;;;;;;5013312;28;20119;-71
2022/04/27 06:21:33;;;;;;;14.30;9.32;;;6.10;99.90;;;;;;5012877;28;20179;-71
2022/04/27 06:24:00;;;;;;;16.85;9.50;;;6.30;99.90;;;;;;5012935;28;20033;-71
2022/04/27 06:26:26;;;;;;;16.30;9.52;;;6.30;99.90;;;;;;5012034;28;20532;-72
2022/04/27 06:28:53;;;;;;;19.63;10.30;;;6.40;99.90;;;;;;5012824;28;20048;-72
2022/04/27 06:31:19;;;;;;;17.20;10.57;;;6.60;99.90;;;;;;5013144;28;20032;-71
2022/04/27 06:33:45;;;;;;;15.23;9.98;;;6.80;99.90;;;;;;5012434;28;20052;-71
2022/04/27 06:36:11;;;;;;;16.38;9.32;;;6.90;99.90;;;;;;5012796;28;20417;-72
2022/04/27 06:38:36;;;;;;;17.85;9.95;;;7.00;99.90;;;;;;5013340;28;20021;-72
2022/04/27 06:41:02;;;;;;;16.50;10.73;;;7.10;99.90;;;;;;5012658;28;20032;-72
2022/04/27 06:43:28;;;;;;;19.75;9.05;;;7.20;99.90;;;;;;5013034;28;20034;-72
2022/04/27 06:45:54;;;;;;;17.67;10.27;;;7.30;99.90;;;;;;5013076;28;20022;-72
2022/04/27 06:48:19;;;;;;;14.00;8.40;;;7.50;99.90;;;;;;5012338;28;20029;-71
2022/04/27 06:50:45;;;;;;;17.10;9.75;;;7.60;99.90;;;;;;5012851;28;20486;-72
2022/04/27 06:53:10;;;;;;;10.98;7.93;;;7.70;99.90;;;;;;5012376;28;20042;-72
2022/04/27 06:55:37;;;;;;;13.95;9.25;;;7.90;99.90;;;;;;5011644;28;20164;-71
2022/04/27 06:58:02;;;;;;;17.45;7.97;;;8.00;99.90;;;;;;5012293;28;20049;-72
2022/04/27 07:00:28;;;;;;;14.25;8.07;;;8.20;99.90;;;;;;5012857;28;20466;-72
2022/04/27 07:02:54;;;;;;;8.90;6.63;;;8.30;99.90;;;;;;5011804;28;20038;-72
2022/04/27 07:05:21;;;;;;;12.27;7.55;;;8.30;99.90;;;;;;5012568;28;20026;-72
2022/04/27 07:07:47;;;;;;;16.17;8.02;;;8.30;99.90;;;;;;5012494;28;20034;-72
2022/04/27 07:10:15;;;;;;;13.98;8.73;;;8.50;99.90;;;;;;5011906;28;20088;-72
2022/04/27 07:12:42;;;;;;;9.45;7.88;;;8.60;99.90;;;;;;5012263;28;20041;-71
2022/04/27 07:15:08;;;;;;;11.52;7.03;;;8.90;99.90;;;;;;5012097;28;20056;-72
2022/04/27 07:17:34;;;;;;;13.23;7.20;;;9.10;99.90;;;;;;5011752;28;20073;-72
2022/04/27 07:19:59;;;;;;;12.82;7.75;;;9.30;99.90;;;;;;5012046;28;20026;-71
2022/04/27 07:22:25;;;;;;;14.30;8.27;;;9.50;99.90;;;;;;5012240;28;20042;-72
2022/04/27 07:24:51;;;;;;;11.93;7.30;;;9.80;99.90;;;;;;5011219;28;20026;-72
2022/04/27 07:27:17;;;;;;;14.88;7.65;;;10.00;99.90;;;;;;5012172;28;20576;-72
2022/04/27 07:29:43;;;;;;;11.95;7.78;;;10.50;99.90;;;;;;5012243;28;20022;-72
2022/04/27 07:32:08;;;;;;;8.57;6.32;;;10.30;99.90;;;;;;5011626;28;20088;-72
2022/04/27 07:34:34;;;;;;;7.25;5.78;;;10.40;99.90;;;;;;5012139;28;20022;-71
2022/04/27 07:37:02;;;;;;;6.70;4.47;;;10.50;99.90;;;;;;5012364;28;20064;-71
2022/04/27 07:39:28;;;;;;;7.90;5.20;;;10.60;99.90;;;;;;5016363;28;20041;-71
2022/04/27 07:41:53;;;;;;;4.97;4.30;;;10.60;99.90;;;;;;5016012;28;20374;-72
2022/04/27 07:44:19;;;;;;;7.57;4.93;;;10.70;99.90;;;;;;5015925;28;20072;-71
2022/04/27 07:46:47;;;;;;;6.75;5.03;;;10.80;99.90;;;;;;5016048;28;20034;-72
2022/04/27 07:49:20;;;;;;;5.70;4.82;;;10.90;99.90;;;;;;5016349;28;20030;-71
2022/04/27 07:51:47;;;;;;;12.48;6.07;;;11.00;99.90;;;;;;5015385;28;20497;-71
2022/04/27 07:54:12;;;;;;;9.32;5.15;;;11.10;99.90;;;;;;5015718;28;20485;-72
2022/04/27 07:56:38;;;;;;;8.35;6.05;;;11.30;99.90;;;;;;5015822;28;20053;-71
2022/04/27 07:59:04;;;;;;;5.50;3.10;;;11.30;99.90;;;;;;5015122;28;20030;-72
2022/04/27 08:01:30;;;;;;;7.40;3.95;;;11.20;99.90;;;;;;5016017;28;20028;-71
2022/04/27 08:03:56;;;;;;;4.63;2.72;;;11.20;99.90;;;;;;5015805;28;20033;-71
2022/04/27 08:06:21;;;;;;;3.25;1.90;;;11.10;99.90;;;;;;5015086;28;20048;-71
2022/04/27 08:08:47;;;;;;;3.25;2.33;;;11.00;99.90;;;;;;5015612;28;20041;-71
2022/04/27 08:11:13;;;;;;;4.60;2.95;;;10.60;99.90;;;;;;5016109;28;20018;-71
2022/04/27 08:13:39;;;;;;;6.95;2.78;;;10.80;99.90;;;;;;5014914;28;20120;-71
2022/04/27 08:16:07;;;;;;;7.20;2.58;;;10.90;99.90;;;;;;5015334;28;20425;-71
2022/04/27 08:18:34;;;;;;;3.72;3.20;;;10.90;99.90;;;;;;5015380;28;20026;-71
2022/04/27 08:21:15;;;;;;;4.47;3.60;;;10.90;99.90;;;;;;5014495;28;20029;-71
2022/04/27 08:23:43;;;;;;;3.40;2.67;;;11.00;99.90;;;;;;5015446;28;20048;-71
2022/04/27 08:26:10;;;;;;;4.82;1.98;;;11.00;99.90;;;;;;5014433;28;20518;-72
2022/04/27 08:28:39;;;;;;;4.25;2.67;;;11.00;99.90;;;;;;5015378;28;20046;-71
2022/04/27 08:31:06;;;;;;;4.80;2.65;;;11.10;99.90;;;;;;5014893;28;20057;-71
2022/04/27 08:33:32;;;;;;;4.05;2.60;;;11.20;99.90;;;;;;5014287;28;20125;-71
2022/04/27 08:35:59;;;;;;;3.97;2.30;;;11.30;99.90;;;;;;5014655;28;20109;-71
2022/04/27 08:38:25;;;;;;;5.80;2.45;;;11.40;99.90;;;;;;5015077;28;20034;-71
2022/04/27 08:40:50;;;;;;;2.15;1.98;;;11.40;99.90;;;;;;5013876;28;20390;-72
2022/04/27 08:43:16;;;;;;;2.40;2.20;;;11.50;99.90;;;;;;5014990;28;20036;-71
2022/04/27 08:45:44;;;;;;;5.80;3.42;;;11.50;99.90;;;;;;5014955;28;20493;-71
2022/04/27 08:48:12;;;;;;;3.60;1.50;;;11.70;99.90;;;;;;5012912;28;20042;-71
2022/04/27 08:50:38;;;;;;;3.20;1.92;;;11.80;99.60;;;;;;5014364;28;20478;-72
2022/04/27 08:53:04;;;;;;;2.90;2.25;;;11.80;99.90;;;;;;5014818;28;20046;-74
2022/04/27 08:55:30;;;;;;;5.70;2.08;;;12.00;99.80;;;;;;5013726;28;20506;-72
2022/04/27 08:58:16;;;;;;;5.82;3.28;;;12.00;99.90;;;;;;5014620;28;20034;-72
2022/04/27 09:00:43;;;;;;;5.68;3.78;;;12.20;99.90;;;;;;5014755;28;20033;-71
2022/04/27 09:03:28;;;;;;;2.50;1.70;;;12.10;99.90;;;;;;5013716;28;20045;-72
2022/04/27 09:06:06;;;;;;;3.78;1.70;;;12.20;96.50;;;;;;5014494;28;20106;-72
2022/04/27 09:08:45;;;;;;;2.70;2.20;;;12.10;96.80;;;;;;5013778;28;20034;-72
2022/04/27 09:11:21;;;;;;;2.92;1.65;;;12.10;97.90;;;;;;5014243;28;20106;-72
2022/04/27 09:13:56;;;;;;;4.95;1.65;;;12.20;96.60;;;;;;5014589;28;20052;-71
2022/04/27 09:16:25;;;;;;;2.17;1.90;;;12.10;95.80;;;;;;5013822;28;20018;-72
2022/04/27 09:22:04;;;;;;;2.60;2.00;;;12.20;96.10;;;;;;5014542;28;20084;-72
2022/04/27 09:24:49;;;;;;;3.00;2.38;;;12.10;96.50;;;;;;5013729;28;20083;-71
2022/04/27 09:27:22;;;;;;;2.45;2.15;;;12.30;97.70;;;;;;5014372;28;20042;-72
2022/04/27 09:29:54;;;;;;;5.80;2.45;;;12.40;97.10;;;;;;5013153;28;20453;-72
2022/04/27 09:32:20;;;;;;;3.83;2.20;;;12.40;96.60;;;;;;5014063;28;20477;-71
2022/04/27 09:34:47;;;;;;;3.00;2.47;;;12.60;96.70;;;;;;5014247;28;20033;-72
2022/04/27 09:37:16;;;;;;;3.90;2.35;;;12.60;96.80;;;;;;5013495;28;20034;-71
2022/04/27 09:39:42;;;;;;;4.38;2.88;;;12.70;97.50;;;;;;5014333;28;20030;-72
2022/04/27 09:42:11;;;;;;;3.88;3.22;;;12.70;97.80;;;;;;5014713;28;20533;-73
2022/04/27 09:44:39;;;;;;;3.10;2.80;;;12.70;97.30;;;;;;5013127;28;20034;-72
2022/04/27 09:47:06;;;;;;;5.35;3.10;;;12.60;97.20;;;;;;5013556;28;20036;-71
2022/04/27 09:49:36;;;;;;;5.53;3.47;;;12.60;97.10;;;;;;5013918;28;20026;-72
2022/04/27 09:52:04;;;;;;;3.28;3.00;;;12.50;97.50;;;;;;5012684;28;20478;-72
2022/04/27 09:54:31;;;;;;;5.10;3.00;;;12.50;95.80;;;;;;5013443;28;20100;-71
2022/04/27 09:56:58;;;;;;;3.33;2.55;;;12.50;95.30;;;;;;5013141;28;20061;-72
2022/04/27 09:59:27;;;;;;;2.60;2.38;;;12.70;95.10;;;;;;5012708;28;20076;-71
2022/04/27 10:01:58;;;;;;;5.65;3.15;;;12.80;94.80;;;;;;5013472;28;20026;-71
2022/04/27 10:04:28;;;;;;;4.13;2.80;;;12.90;95.10;;;;;;5013608;28;20026;-72
2022/04/27 10:06:58;;;;;;;4.07;2.60;;;13.00;95.60;;;;;;5013165;28;20026;-71
2022/04/27 10:09:31;;;;;;;4.13;2.60;;;13.20;95.20;;;;;;5012453;28;20048;-71
2022/04/27 10:11:58;;;;;;;3.08;2.28;;;13.40;93.60;;;;;;5012318;28;20108;-72
2022/04/27 10:14:25;;;;;;;6.07;3.00;;;13.40;92.10;;;;;;5013016;28;20548;-72
2022/04/27 10:16:52;;;;;;;3.75;2.97;;;13.50;93.00;;;;;;5013020;28;20026;-73
2022/04/27 10:19:18;;;;;;;5.13;3.05;;;13.50;91.80;;;;;;5012513;28;20030;-72
2022/04/27 10:22:05;;;;;;;3.67;3.38;;;13.50;92.10;;;;;;5013316;28;20033;-73
2022/04/27 10:24:42;;;;;;;3.60;2.92;;;13.50;93.20;;;;;;5014071;28;20034;-72
2022/04/27 10:27:18;;;;;;;2.95;2.75;;;13.70;92.60;;;;;;5012682;28;20029;-72
2022/04/27 10:29:59;;;;;;;4.22;2.97;;;13.50;92.70;;;;;;5013084;28;20390;-71
2022/04/27 10:32:41;;;;;;;;;;;13.60;94.10;;;;;;5013364;28;20030;-71
2022/04/27 10:35:17;;;;;;;8.55;3.97;;;13.40;94.60;;;;;;5012926;28;19905;-72
2022/04/27 10:38:05;;;;;;;3.17;2.88;;;13.20;94.50;;;;;;5012990;28;20030;-71
2022/04/27 10:40:39;;;;;;;6.15;3.55;;;13.10;95.00;;;;;;5012308;28;20022;-72
2022/04/27 10:43:24;;;;;;;6.25;3.80;;;13.00;94.70;;;;;;5012423;28;20032;-71
2022/04/27 10:45:50;;;;;;;5.22;3.90;;;12.90;95.60;;;;;;5012644;28;20030;-72
2022/04/27 10:48:20;;;;;;;3.90;3.40;;;12.80;95.90;;;;;;5012067;28;20029;-72
2022/04/27 10:50:57;;;;;;;5.00;3.80;;;12.80;95.80;;;;;;5012836;28;20108;-72
2022/04/27 10:53:25;;;;;;;6.80;3.80;;;12.80;95.80;;;;;;5012740;28;20292;-73
2022/04/27 10:55:55;;;;;;;5.07;3.53;;;13.00;96.10;;;;;;5011688;28;20058;-72
2022/04/27 10:58:24;;;;;;;10.30;4.00;;;13.20;96.20;;;;;;5012791;28;20046;-72
2022/04/27 11:01:01;;;;;;;4.15;3.10;;;13.30;95.20;;;;;;5011624;28;20053;-72
2022/04/27 11:03:28;;;;;;;7.68;3.58;;;13.10;94.10;;;;;;5012566;28;20113;-71
2022/04/27 11:05:58;;;;;;;6.05;3.38;;;13.10;95.70;;;;;;5012141;28;20026;-72
2022/04/27 11:08:42;;;;;;;3.65;3.25;;;13.10;95.20;;;;;;5011962;28;20445;-71
2022/04/27 11:11:09;;;;;;;5.18;3.28;;;13.20;95.70;;;;;;5012511;28;20034;-71
2022/04/27 11:13:36;;;;;;;7.40;3.88;;;13.30;96.40;;;;;;5012124;28;20040;-72
2022/04/27 11:16:08;;;;;;;5.40;3.80;;;13.20;95.40;;;;;;5011508;28;20030;-72
2022/04/27 11:18:55;;;;;;;5.70;3.72;;;13.40;96.00;;;;;;5012192;28;20096;-74
2022/04/27 11:21:22;;;;;;;9.05;4.80;;;13.60;95.20;;;;;;5012543;28;20088;-72
2022/04/27 11:23:48;;;;;;;4.13;3.55;;;13.60;93.80;;;;;;5011340;28;20108;-72
2022/04/27 11:26:14;;;;;;;8.73;4.20;;;13.60;95.40;;;;;;5012422;28;20538;-72
2022/04/27 11:28:42;;;;;;;5.70;3.50;;;13.90;96.10;;;;;;5012242;28;20373;-72
2022/04/27 11:31:09;;;;;;;4.65;3.35;;;14.10;95.70;;;;;;5011345;28;20038;-71
2022/04/27 11:33:41;;;;;;;3.80;3.50;;;14.20;94.50;;;;;;5012363;28;20099;-73
2022/04/27 11:36:19;;;;;;;5.35;3.40;;;14.00;95.10;;;;;;5011132;28;20022;-72
2022/04/27 11:38:45;;;;;;;6.55;4.07;;;14.00;95.50;;;;;;5012505;28;20030;-72
2022/04/27 11:41:19;;;;;;;4.00;3.35;;;14.00;95.50;;;;;;5011907;28;20481;-72
2022/04/27 11:43:46;;;;;;;4.28;3.72;;;13.80;94.70;;;;;;5011647;28;20069;-72
2022/04/27 11:46:11;;;;;;;4.47;3.65;;;13.70;95.00;;;;;;5011965;28;20030;-72
2022/04/27 11:48:37;;;;;;;5.72;3.55;;;13.80;94.70;;;;;;5012397;28;20065;-72
2022/04/27 11:51:06;;;;;;;3.47;3.17;;;13.80;94.60;;;;;;5011148;28;20109;-71
2022/04/27 11:53:46;;;;;;;8.38;3.67;;;13.70;94.90;;;;;;5011801;28;20049;-72
2022/04/27 11:56:12;;;;;;;6.28;3.47;;;13.90;94.90;;;;;;5011837;28;20268;-72
2022/04/27 11:58:38;;;;;;;6.95;4.40;;;13.90;94.40;;;;;;5011532;28;20635;-72
2022/04/27 12:01:04;;;;;;;10.02;3.97;;;14.00;94.70;;;;;;5011985;28;20064;-71
2022/04/27 12:03:32;;;;;;;5.90;4.25;;;14.00;94.40;;;;;;5012051;28;20022;-71
2022/04/27 12:05:58;;;;;;;4.28;3.78;;;14.10;94.20;;;;;;5010901;28;20141;-71
2022/04/27 12:08:25;;;;;;;9.27;3.80;;;14.30;94.20;;;;;;5011921;28;20108;-71
2022/04/27 12:10:51;;;;;;;6.25;4.15;;;14.20;94.20;;;;;;5011611;28;20512;-71
2022/04/27 12:13:20;;;;;;;4.63;3.83;;;13.90;94.70;;;;;;5011372;28;20049;-72
2022/04/27 12:15:54;;;;;;;12.82;3.95;;;13.80;94.60;;;;;;5012077;28;20029;-72
2022/04/27 12:18:25;;;;;;;7.50;3.67;;;13.70;95.80;;;;;;5011029;28;20426;-72
2022/04/27 12:20:55;;;;;;;6.22;4.20;;;13.60;95.70;;;;;;5011377;28;20022;-72
2022/04/27 12:23:25;;;;;;;5.25;3.88;;;13.60;95.40;;;;;;5013151;28;20092;-73
2022/04/27 12:25:55;;;;;;;5.88;4.25;;;13.70;95.40;;;;;;5014809;28;20026;-72
2022/04/27 12:28:23;;;;;;;5.53;3.47;;;13.50;95.30;;;;;;5015415;28;20033;-72
2022/04/27 12:30:53;;;;;;;13.60;6.25;;;13.50;94.90;;;;;;5015030;28;20030;-72
2022/04/27 12:33:30;;;;;;;7.97;4.68;;;13.30;95.10;;;;;;5014294;28;20038;-72
2022/04/27 12:39:09;;;;;;;7.25;4.22;;;13.10;95.50;;;;;;5016355;28;20425;-72
2022/04/27 12:41:44;;;;;;;5.57;3.90;;;13.20;95.10;;;;;;5018027;28;20022;-72
2022/04/27 12:44:15;;;;;;;7.93;4.38;;;13.10;94.90;;;;;;5016209;28;20030;-72
2022/04/27 12:46:59;;;;;;;4.25;3.85;;;13.30;95.10;;;;;;5014584;28;20034;-73
2022/04/27 12:49:26;;;;;;;4.97;3.88;;;13.30;93.60;;;;;;5015164;28;20037;-72
2022/04/27 12:51:52;;;;;;;7.82;4.07;;;13.40;94.80;;;;;;5014427;28;20079;-71
2022/04/27 12:54:18;;;;;;;10.00;4.13;;;13.50;94.00;;;;;;5014081;28;20129;-72
2022/04/27 12:56:44;;;;;;;4.32;3.92;;;13.70;94.20;;;;;;5014518;28;20050;-72
2022/04/27 12:59:11;;;;;;;6.65;4.22;;;13.90;93.20;;;;;;5014430;28;20124;-72
2022/04/27 13:01:38;;;;;;;6.50;4.18;;;14.00;93.40;;;;;;5014444;28;20033;-72
2022/04/27 13:04:04;;;;;;;6.65;4.00;;;14.10;94.00;;;;;;5014349;28;20053;-71